createdAt,value
2019-04-06T00:02:45.714Z,24.33
2019-04-06T00:07:48.240Z,24.90
2019-04-06T00:12:50.868Z,22.70
2019-04-06T00:17:53.437Z,24.53
2019-04-06T00:22:56.029Z,24.20
2019-04-06T00:27:58.539Z,22.13
2019-04-06T00:33:04.733Z,25.60
2019-04-06T00:38:07.299Z,23.97
2019-04-06T00:43:09.801Z,27.33
2019-04-06T00:48:12.299Z,23.53
2019-04-06T00:53:14.856Z,22.90
2019-04-06T00:58:17.447Z,23.57
2019-04-06T01:03:19.983Z,24.03
2019-04-06T01:08:22.533Z,23.00
2019-04-06T01:13:25.089Z,23.47
2019-04-06T01:18:27.655Z,24.70
2019-04-06T01:23:30.186Z,23.07
2019-04-06T01:28:32.774Z,23.93
2019-04-06T01:33:35.356Z,23.47
2019-04-06T01:38:37.917Z,22.90
2019-04-06T01:43:40.485Z,24.43
2019-04-06T01:48:43.086Z,25.37
2019-04-06T01:53:45.641Z,23.80
2019-04-06T01:58:48.179Z,22.80
2019-04-06T02:03:50.772Z,22.50
2019-04-06T02:08:53.377Z,23.87
2019-04-06T02:13:55.952Z,23.33
2019-04-06T02:18:58.710Z,23.73
2019-04-06T02:24:03.297Z,25.40
2019-04-06T02:29:05.771Z,23.73
2019-04-06T02:34:30.132Z,26.77
2019-04-06T02:39:42.110Z,24.27
2019-04-06T02:44:44.714Z,23.17
2019-04-06T02:49:47.238Z,25.03
2019-04-06T02:54:49.864Z,22.57
2019-04-06T02:59:52.442Z,22.40
2019-04-06T03:04:54.971Z,22.63
2019-04-06T03:09:57.618Z,23.07
2019-04-06T03:15:00.421Z,23.17
2019-04-06T03:20:03.559Z,23.87
2019-04-06T03:25:06.105Z,22.97
2019-04-06T03:30:08.926Z,25.73
2019-04-06T03:35:11.536Z,33.27
2019-04-06T03:40:14.095Z,29.77
2019-04-06T03:45:16.634Z,28.20
2019-04-06T03:50:19.134Z,28.57
2019-04-06T03:55:21.703Z,25.93
2019-04-06T04:00:24.267Z,24.23
2019-04-06T04:05:26.768Z,23.83
2019-04-06T04:10:33.500Z,23.67
2019-04-06T04:15:36.630Z,23.07
2019-04-06T04:20:38.929Z,21.80
2019-04-06T04:25:41.476Z,25.30
2019-04-06T04:30:44.111Z,23.57
2019-04-06T04:35:46.524Z,24.83
2019-04-06T04:40:49.039Z,23.77
2019-04-06T04:45:51.539Z,25.13
2019-04-06T04:50:54.029Z,24.30
2019-04-06T04:55:56.781Z,25.03
2019-04-06T05:00:59.149Z,25.87
2019-04-06T05:06:01.711Z,25.40
2019-04-06T05:11:05.289Z,24.57
2019-04-06T05:16:09.998Z,27.53
2019-04-06T05:21:12.917Z,24.57
2019-04-06T05:26:15.226Z,26.00
2019-04-06T05:31:17.739Z,27.40
2019-04-06T05:36:20.283Z,24.83
2019-04-06T05:41:22.933Z,24.60
2019-04-06T05:46:25.514Z,26.33
2019-04-06T05:51:27.989Z,24.30
2019-04-06T05:56:30.527Z,26.07
2019-04-06T06:01:33.180Z,26.77
2019-04-06T06:06:35.948Z,26.47
2019-04-06T06:11:38.499Z,26.17
2019-04-06T06:16:40.978Z,26.67
2019-04-06T06:21:43.524Z,27.60
2019-04-06T06:26:46.095Z,26.10
2019-04-06T06:31:48.721Z,27.43
2019-04-06T06:36:51.363Z,25.67
2019-04-06T06:41:54.093Z,28.03
2019-04-06T06:46:56.722Z,28.93
2019-04-06T06:51:59.238Z,27.83
2019-04-06T06:57:01.733Z,28.27
2019-04-06T07:02:04.378Z,29.07
2019-04-06T07:07:06.923Z,27.70
2019-04-06T07:12:09.657Z,26.27
2019-04-06T07:17:12.187Z,27.07
2019-04-06T07:22:14.735Z,29.20
2019-04-06T07:27:17.496Z,29.77
2019-04-06T07:32:20.131Z,29.47
2019-04-06T07:37:22.771Z,27.60
2019-04-06T07:42:25.393Z,29.43
2019-04-06T07:47:27.953Z,30.33
2019-04-06T07:52:30.619Z,29.23
2019-04-06T07:57:34.993Z,29.00
2019-04-06T08:02:37.699Z,30.60
2019-04-06T08:07:40.923Z,28.67
2019-04-06T08:12:43.603Z,27.77
2019-04-06T08:17:46.340Z,27.87
2019-04-06T08:22:49.205Z,25.73
2019-04-06T08:27:51.782Z,25.40
2019-04-06T08:32:54.713Z,21.93
2019-04-06T08:37:57.348Z,22.13
2019-04-06T08:43:02.994Z,22.63
2019-04-06T08:48:06.106Z,21.80
2019-04-06T08:53:09.836Z,20.37
2019-04-06T08:58:15.203Z,21.17
2019-04-06T09:03:22.621Z,20.17
2019-04-06T09:08:33.021Z,21.27
2019-04-06T09:13:40.439Z,22.70
2019-04-06T09:18:43.297Z,22.07
2019-04-06T09:23:47.309Z,19.47
2019-04-06T09:28:50.251Z,21.97
2019-04-06T09:33:52.846Z,17.60
2019-04-06T09:38:55.394Z,16.83
2019-04-06T09:43:58.120Z,18.70
2019-04-06T09:49:24.777Z,18.37
2019-04-06T09:54:48.015Z,18.20
2019-04-06T09:59:58.188Z,21.83
2019-04-06T10:06:04.681Z,20.20
2019-04-06T10:12:13.185Z,17.80
2019-04-06T10:18:27.748Z,18.47
2019-04-06T10:23:35.953Z,18.70
2019-04-06T10:28:44.877Z,19.40
2019-04-06T10:33:57.442Z,17.50
2019-04-06T10:39:13.996Z,18.17
2019-04-06T10:44:23.579Z,16.33
2019-04-06T10:49:47.062Z,14.50
2019-04-06T10:54:58.463Z,13.20
2019-04-06T11:00:06.506Z,13.07
2019-04-06T11:05:45.969Z,12.83
2019-04-06T11:10:54.635Z,14.53
2019-04-06T11:16:15.204Z,12.37
2019-04-06T11:21:25.427Z,14.30
2019-04-06T11:27:32.479Z,10.30
2019-04-06T11:33:13.386Z,10.37
2019-04-06T11:38:22.268Z,9.97
2019-04-06T11:43:34.875Z,10.47
2019-04-06T11:48:45.240Z,11.27
2019-04-06T11:53:53.641Z,10.07
2019-04-06T11:59:11.138Z,10.20
2019-04-06T12:04:22.104Z,10.40
2019-04-06T12:09:33.244Z,10.67
2019-04-06T12:14:44.508Z,9.43
2019-04-06T12:19:57.743Z,9.00
2019-04-06T12:25:07.003Z,9.37
2019-04-06T12:30:21.219Z,11.87
2019-04-06T12:35:43.565Z,9.57
2019-04-06T12:40:51.615Z,9.13
2019-04-06T12:46:59.599Z,9.77
2019-04-06T12:52:29.210Z,9.33
2019-04-06T12:57:52.523Z,9.63
2019-04-06T13:03:07.539Z,9.30
2019-04-06T13:08:32.800Z,10.07
2019-04-06T13:13:43.335Z,9.37
2019-04-06T13:19:00.370Z,9.07
2019-04-06T13:24:40.744Z,9.63
2019-04-06T13:30:17.106Z,9.77
2019-04-06T13:36:24.015Z,9.07
2019-04-06T13:42:05.461Z,9.47
2019-04-06T13:49:18.832Z,9.23
2019-04-06T13:54:33.809Z,9.13
2019-04-06T13:59:48.910Z,9.57
2019-04-06T14:04:57.808Z,9.53
2019-04-06T14:10:36.323Z,8.23
2019-04-06T14:15:46.805Z,9.70
2019-04-06T14:20:59.049Z,9.70
2019-04-06T14:26:07.661Z,9.60
2019-04-06T14:31:27.453Z,10.60
2019-04-06T14:36:29.811Z,10.83
2019-04-06T14:41:41.859Z,16.17
2019-04-06T14:47:20.803Z,9.37
2019-04-06T14:52:29.827Z,8.57
2019-04-06T14:58:36.088Z,10.00
2019-04-06T15:03:45.227Z,11.60
2019-04-06T15:08:54.483Z,9.23
2019-04-06T15:14:04.986Z,10.03
2019-04-06T15:19:17.582Z,8.83
2019-04-06T15:24:28.088Z,8.57
2019-04-06T15:29:41.953Z,9.73
2019-04-06T15:34:57.987Z,8.33
2019-04-06T15:40:12.330Z,8.00
2019-04-06T15:45:20.234Z,9.17
2019-04-06T15:50:35.444Z,10.07
2019-04-06T15:55:42.492Z,9.77
2019-04-06T16:00:51.615Z,9.80
2019-04-06T16:06:00.717Z,19.53
2019-04-06T16:11:20.924Z,87.93
2019-04-06T16:16:28.265Z,19.70
2019-04-06T16:21:37.527Z,13.60
2019-04-06T16:26:48.750Z,12.70
2019-04-06T16:31:55.611Z,10.57
2019-04-06T16:37:26.597Z,9.20
2019-04-06T16:42:43.088Z,10.07
2019-04-06T16:47:51.524Z,11.83
2019-04-06T16:53:03.037Z,10.93
2019-04-06T16:59:12.631Z,10.40
2019-04-06T17:04:31.918Z,9.47
2019-04-06T17:09:51.920Z,9.63
2019-04-06T17:15:04.577Z,11.87
2019-04-06T17:20:46.251Z,11.03
2019-04-06T17:26:28.894Z,10.17
2019-04-06T17:31:55.494Z,9.23
2019-04-06T17:37:05.849Z,8.70
2019-04-06T17:42:16.244Z,11.13
2019-04-06T17:47:27.703Z,8.40
2019-04-06T17:52:34.929Z,8.70
2019-04-06T17:57:46.853Z,9.23
2019-04-06T18:03:08.506Z,10.70
2019-04-06T18:10:21.214Z,14.23
2019-04-06T18:15:23.867Z,14.60
2019-04-06T18:20:28.781Z,22.27
2019-04-06T18:25:33.475Z,10.20
2019-04-06T18:30:36.390Z,9.90
2019-04-06T18:35:39.363Z,11.93
2019-04-06T18:40:42.419Z,9.17
2019-04-06T18:45:44.550Z,8.40
2019-04-06T18:50:47.360Z,8.50
2019-04-06T18:55:50.561Z,7.90
2019-04-06T19:00:53.177Z,7.50
2019-04-06T19:05:55.765Z,8.50
2019-04-06T19:10:58.906Z,7.63
2019-04-06T19:16:01.263Z,9.17
2019-04-06T19:21:03.986Z,11.80
2019-04-06T19:26:06.541Z,13.27
2019-04-06T19:31:09.137Z,12.57
2019-04-06T19:36:12.272Z,10.00
2019-04-06T19:41:14.548Z,18.13
2019-04-06T19:46:17.342Z,11.43
2019-04-06T19:51:20.835Z,11.57
2019-04-06T19:56:24.457Z,9.07
2019-04-06T20:01:27.891Z,10.53
2019-04-06T20:06:30.732Z,9.93
2019-04-06T20:11:33.614Z,9.07
2019-04-06T20:16:36.467Z,10.40
2019-04-06T20:21:39.756Z,10.57
2019-04-06T20:26:43.863Z,12.87
2019-04-06T20:31:47.195Z,11.23
2019-04-06T20:36:49.645Z,9.63
2019-04-06T20:41:53.255Z,7.97
2019-04-06T20:46:56.586Z,8.47
2019-04-06T20:52:02.845Z,8.23
2019-04-06T20:57:06.524Z,9.20
2019-04-06T21:02:09.372Z,8.67
2019-04-06T21:07:12.149Z,9.27
2019-04-06T21:12:15.077Z,8.53
2019-04-06T21:17:18.656Z,7.50
2019-04-06T21:22:21.537Z,8.37
2019-04-06T21:27:24.177Z,8.20
2019-04-06T21:32:27.099Z,6.80
2019-04-06T21:37:29.355Z,7.03
2019-04-06T21:42:31.964Z,6.20
2019-04-06T21:47:35.205Z,5.97
2019-04-06T21:52:37.155Z,4.60
2019-04-06T21:57:40.399Z,5.53
2019-04-06T22:02:42.524Z,4.67
2019-04-06T22:07:49.824Z,5.43
2019-04-06T22:12:48.050Z,4.73
2019-04-06T22:17:50.513Z,3.77
2019-04-06T22:22:53.585Z,5.40
2019-04-06T22:27:55.730Z,4.87
2019-04-06T22:32:58.289Z,5.70
2019-04-06T22:38:01.170Z,5.03
2019-04-06T22:43:03.990Z,4.07
2019-04-06T22:48:06.141Z,4.83
2019-04-06T22:53:08.748Z,4.00
2019-04-06T22:58:11.758Z,4.77
2019-04-06T23:03:21.249Z,5.30
2019-04-06T23:08:23.882Z,5.63
2019-04-06T23:13:26.906Z,4.87
2019-04-06T23:18:29.070Z,4.63
2019-04-06T23:23:31.604Z,4.67
2019-04-06T23:28:34.138Z,4.33
2019-04-06T23:33:36.846Z,5.83
2019-04-06T23:38:39.536Z,3.73
2019-04-06T23:43:41.928Z,5.70
2019-04-06T23:48:44.613Z,4.30
2019-04-06T23:53:47.067Z,4.37
2019-04-06T23:58:49.793Z,4.43
